Current | Forecast
Updated: 5:00 PM CEST on October 23, 2017
Observed at Prague, Czech Republic
Temperature 9°C
Humidity 82%
Dew Point 6°C
Wind WNW at 17 km/h
Pressure 1017 hPa (Steady)
Conditions Light Rain
Visibility 10.0 kilometers
UV 0 out of 16
Clouds (FEW) : 548 m
Overcast (OVC) : 853 m
Yesterday's Maximum 12°C
Yesterday's Minimum 7°C approx.
Yesterday's Heating Degree Days 16 approx.
Sunrise7:37 AM CEST
Sunset5:55 PM CEST
Moon Rise11:01 AM CEST
Moon Set8:19 PM CEST
Moon PhaseMoon Phase
Waxing Crescent
Raw METARMETAR LKPR 231500Z 30009KT 9999 -RA FEW018 OVC028 09/06 Q1017 NOSIG


Monday
. High: 62° F.
Tuesday
. High: 69° F.
Wednesday
. High: 78° F.
Thursday
. High: 59° F.
Friday
. High: 60° F.
Saturday
. High: 66° F.
Sunday
. High: 69° F.
Monday
. High: 60° F.

Units: English | Metric

Find the Weather for any City, State or Zipcode, or Country:

U.S. State List | Severe Weather | Tropical Storms | Ski Conditions
United States | Canada | Central America | South America | Asia | Europe | Australia | Africa | Islands

Weather Underground

© Copyright 2017
The Weather Company, LLC